createdAt,value
2017-08-21T03:19:17.649Z,13.40
2017-08-21T03:21:46.735Z,13.40
2017-08-21T03:24:15.512Z,13.40
2017-08-21T03:26:43.853Z,13.40
2017-08-21T03:29:12.145Z,13.40
2017-08-21T03:31:42.276Z,13.50
2017-08-21T03:34:10.570Z,13.50
2017-08-21T03:36:38.862Z,13.50
2017-08-21T03:39:07.799Z,13.60
2017-08-21T03:41:36.196Z,13.60
2017-08-21T03:44:04.756Z,13.70
2017-08-21T03:46:33.097Z,13.70
2017-08-21T03:49:02.129Z,13.70
2017-08-21T03:51:31.522Z,13.70
2017-08-21T03:53:59.883Z,13.80
2017-08-21T03:56:28.225Z,13.80
2017-08-21T03:58:56.794Z,13.80
2017-08-21T04:01:25.118Z,13.80
2017-08-21T04:03:54.193Z,13.80
2017-08-21T04:06:23.447Z,13.80
2017-08-21T04:08:52.127Z,13.80
2017-08-21T04:11:21.715Z,13.90
2017-08-21T04:13:50.908Z,13.90
2017-08-21T04:16:19.411Z,13.90
2017-08-21T06:16:10.693Z,14.70
2017-08-21T06:18:39.145Z,14.70
2017-08-21T06:21:07.865Z,14.70
2017-08-21T06:23:36.196Z,14.70
2017-08-21T06:26:05.428Z,14.60
2017-08-21T06:28:34.013Z,14.70
2017-08-21T06:31:02.415Z,14.80
2017-08-21T06:33:32.113Z,14.90
2017-08-21T06:36:01.757Z,14.90
2017-08-21T06:38:31.297Z,15.00
2017-08-21T06:40:59.578Z,14.90
2017-08-21T06:43:28.445Z,14.80
2017-08-21T06:45:57.809Z,14.80
2017-08-21T06:48:26.119Z,14.80
2017-08-21T06:50:55.346Z,14.90
2017-08-21T06:53:24.426Z,15.00
2017-08-21T06:55:53.784Z,15.00
2017-08-21T06:58:23.830Z,15.00
2017-08-21T07:00:52.146Z,14.90
2017-08-21T07:03:21.179Z,15.10
2017-08-21T07:05:50.294Z,15.10
2017-08-21T07:08:18.608Z,15.10
2017-08-21T07:10:47.972Z,15.20
2017-08-21T07:13:16.677Z,15.30
2017-08-21T07:15:45.897Z,15.20
2017-08-21T07:18:14.423Z,15.30
2017-08-21T07:20:44.357Z,15.30
2017-08-21T07:23:13.056Z,15.30
2017-08-21T07:25:42.439Z,15.30
2017-08-21T07:28:11.010Z,15.40
2017-08-21T07:30:39.933Z,15.40
2017-08-21T07:33:09.019Z,15.40
2017-08-21T07:35:38.402Z,15.40
2017-08-21T07:38:06.728Z,15.40
2017-08-21T07:40:35.044Z,15.40
2017-08-21T07:43:03.626Z,15.50
2017-08-21T07:45:32.514Z,15.60
2017-08-21T07:48:01.745Z,15.80
2017-08-21T07:50:30.421Z,15.80
2017-08-21T07:52:59.759Z,16.00
2017-08-21T07:55:29.870Z,16.20
2017-08-21T07:57:58.178Z,16.20
2017-08-21T08:00:27.255Z,16.50
2017-08-21T08:02:56.756Z,16.50
2017-08-21T08:05:25.761Z,16.60
2017-08-21T08:07:54.960Z,16.90
2017-08-21T08:10:23.964Z,16.90
2017-08-21T08:12:52.752Z,16.80
2017-08-21T08:15:21.348Z,16.70
2017-08-21T08:17:50.013Z,16.90
2017-08-21T08:20:19.506Z,17.00
2017-08-21T08:22:47.879Z,17.00
2017-08-21T08:25:17.636Z,17.20
2017-08-21T08:27:47.059Z,17.20
2017-08-21T08:30:17.913Z,17.60
2017-08-21T08:32:47.625Z,17.60
2017-08-21T08:35:16.017Z,17.80
2017-08-21T08:37:45.107Z,17.70
2017-08-21T08:40:13.507Z,17.70
2017-08-21T08:42:41.868Z,17.80
2017-08-21T08:45:10.511Z,18.10
2017-08-21T08:47:39.185Z,18.30
2017-08-21T08:50:08.100Z,18.20
2017-08-21T08:52:39.513Z,18.40
2017-08-21T08:55:07.837Z,18.60
2017-08-21T09:02:38.045Z,18.90
2017-08-21T09:05:07.116Z,18.80
2017-08-21T09:07:35.562Z,18.70
2017-08-21T09:10:04.266Z,18.50
2017-08-21T09:12:32.544Z,18.70
2017-08-21T09:15:01.168Z,18.70
2017-08-21T09:17:30.388Z,18.70
2017-08-21T09:19:59.187Z,18.90
2017-08-21T09:22:28.516Z,19.30
2017-08-21T09:24:56.857Z,19.30
2017-08-21T09:27:26.611Z,19.10
2017-08-21T09:29:54.937Z,19.10
2017-08-21T09:32:23.211Z,19.00
2017-08-21T09:34:52.484Z,19.00
2017-08-21T09:37:20.761Z,19.00
2017-08-21T09:39:50.217Z,19.20
2017-08-21T09:42:19.314Z,19.50
2017-08-21T09:44:47.654Z,19.50
2017-08-21T09:47:17.220Z,20.00
2017-08-21T09:49:45.566Z,19.90
2017-08-21T09:52:14.518Z,20.10
2017-08-21T09:54:42.798Z,20.20
2017-08-21T09:57:12.480Z,19.60
2017-08-21T09:59:41.081Z,19.60
2017-08-21T10:02:09.380Z,19.30
2017-08-21T10:04:37.734Z,19.30
2017-08-21T10:07:06.691Z,19.10
2017-08-21T10:09:35.748Z,19.60
2017-08-21T10:12:04.160Z,19.50
2017-08-21T10:14:32.962Z,19.70
2017-08-21T10:17:02.902Z,19.30
2017-08-21T10:19:31.812Z,19.30
2017-08-21T10:22:00.137Z,19.00
2017-08-21T10:26:58.103Z,19.50
2017-08-21T10:29:26.392Z,20.30
2017-08-21T10:31:55.881Z,20.80
2017-08-21T10:34:24.220Z,20.70
2017-08-21T10:36:53.652Z,20.00
2017-08-21T10:39:21.970Z,20.00
2017-08-21T10:56:49.918Z,22.60
2017-08-21T10:59:18.260Z,23.50
2017-08-21T11:01:47.258Z,23.20
2017-08-21T11:11:46.910Z,19.30
2017-08-21T11:14:16.140Z,19.40
2017-08-21T11:16:46.046Z,22.70
2017-08-21T11:19:16.825Z,22.70
2017-08-21T11:21:46.645Z,24.40
2017-08-21T11:24:15.271Z,25.50
2017-08-21T11:26:43.984Z,26.70
2017-08-21T11:29:14.005Z,27.90
2017-08-21T11:34:12.197Z,27.70
2017-08-21T11:36:41.264Z,27.20
2017-08-21T11:46:38.709Z,26.30
2017-08-21T11:49:07.334Z,26.10
2017-08-21T11:54:06.709Z,27.70
2017-08-21T11:56:35.335Z,28.10
2017-08-21T11:59:04.420Z,28.60
2017-08-21T12:01:33.438Z,28.70
2017-08-21T12:04:02.405Z,27.50
2017-08-21T12:06:30.731Z,25.90
2017-08-21T12:09:00.797Z,23.90
2017-08-21T12:11:29.936Z,23.80
2017-08-21T12:13:59.498Z,23.20
2017-08-21T12:16:28.053Z,22.60
2017-08-21T12:18:57.142Z,21.30
2017-08-21T12:21:26.627Z,20.80
2017-08-21T12:23:54.926Z,20.70
2017-08-21T12:26:23.351Z,20.60
2017-08-21T12:28:52.713Z,21.70
2017-08-21T12:31:21.190Z,22.40
2017-08-21T12:33:49.460Z,22.60
2017-08-21T12:36:19.673Z,22.90
2017-08-21T12:38:47.970Z,22.90
2017-08-21T12:41:17.311Z,23.30
2017-08-21T12:43:47.336Z,22.50
2017-08-21T12:46:15.655Z,22.40
2017-08-21T12:48:43.990Z,22.10
2017-08-21T12:51:12.655Z,21.50
2017-08-21T12:53:42.388Z,24.60
2017-08-21T13:06:11.520Z,26.90
2017-08-21T13:08:41.062Z,27.80
2017-08-21T13:11:10.668Z,29.30
2017-08-21T13:13:38.950Z,29.30
2017-08-21T13:16:07.387Z,29.60
2017-08-21T13:18:36.729Z,27.70
2017-08-21T13:21:05.032Z,27.70
2017-08-21T13:23:33.390Z,26.00
2017-08-21T13:26:01.704Z,25.00
2017-08-21T13:28:30.164Z,24.30
2017-08-21T13:30:58.780Z,23.50
2017-08-21T13:33:28.240Z,24.30
2017-08-21T13:35:56.770Z,24.30
2017-08-21T13:38:25.365Z,24.30
2017-08-21T13:40:55.076Z,24.60
2017-08-21T13:43:23.359Z,24.50
2017-08-21T13:45:52.005Z,25.20
2017-08-21T13:53:20.524Z,23.10
2017-08-21T13:55:48.794Z,23.10
2017-08-21T13:58:17.145Z,22.20
2017-08-21T14:00:45.647Z,21.70
2017-08-21T14:03:15.155Z,20.80
2017-08-21T14:05:44.546Z,20.50
2017-08-21T14:08:13.148Z,20.50
2017-08-21T14:10:42.197Z,19.20
2017-08-21T14:13:10.470Z,19.20
2017-08-21T14:15:38.890Z,18.50
2017-08-21T14:18:07.470Z,18.00
2017-08-21T14:20:35.899Z,17.90
2017-08-21T14:23:04.931Z,17.90
2017-08-21T14:25:33.540Z,17.90
2017-08-21T14:28:01.813Z,18.00
2017-08-21T14:30:30.207Z,18.00
2017-08-21T14:32:58.791Z,18.10
2017-08-21T14:36:01.749Z,18.00
2017-08-21T14:38:31.163Z,18.00
2017-08-21T14:40:59.631Z,17.90
2017-08-21T14:43:28.239Z,18.00
2017-08-21T14:45:56.534Z,18.00
2017-08-21T14:48:24.910Z,18.10
2017-08-21T14:50:54.385Z,18.70
2017-08-21T14:55:54.096Z,20.20
2017-08-21T14:58:22.359Z,20.20
2017-08-21T15:00:52.078Z,21.40
2017-08-21T15:03:20.760Z,23.20
2017-08-21T15:05:49.072Z,24.80
2017-08-21T15:08:17.418Z,25.80
2017-08-21T15:10:45.988Z,26.50
2017-08-21T15:38:13.062Z,22.00
2017-08-21T15:40:41.319Z,21.90
2017-08-21T15:43:09.713Z,21.60
2017-08-21T15:45:38.325Z,21.00
2017-08-21T15:48:06.598Z,20.70
2017-08-21T15:50:34.877Z,20.40
2017-08-21T15:53:04.612Z,20.00
2017-08-21T15:55:33.510Z,20.00
2017-08-21T15:58:01.817Z,19.70
2017-08-21T16:00:30.487Z,19.70
2017-08-21T16:02:58.863Z,19.70
2017-08-21T16:05:27.233Z,19.70
2017-08-21T16:07:56.463Z,19.80
2017-08-21T16:10:24.798Z,19.70
2017-08-21T16:12:53.121Z,19.80
2017-08-21T16:15:22.207Z,19.80
2017-08-21T16:17:51.188Z,19.80
2017-08-21T16:20:20.244Z,20.00
2017-08-21T16:22:49.503Z,19.90
2017-08-21T16:25:17.831Z,20.20
2017-08-21T16:27:47.744Z,20.20
2017-08-21T16:30:16.073Z,20.20
2017-08-21T16:32:44.373Z,20.30
2017-08-21T16:35:12.697Z,20.20
2017-08-21T16:37:41.009Z,20.00
2017-08-21T16:40:09.650Z,19.80
2017-08-21T16:42:37.931Z,19.70
2017-08-21T16:45:06.223Z,19.50
2017-08-21T16:47:34.828Z,19.40
2017-08-21T16:50:03.159Z,19.30
2017-08-21T16:52:31.863Z,19.20
2017-08-21T16:55:00.528Z,19.10
2017-08-21T16:57:29.327Z,18.90
2017-08-21T16:59:57.624Z,18.70
2017-08-21T17:02:26.210Z,18.50
2017-08-21T17:04:55.295Z,18.30
2017-08-21T17:07:23.700Z,17.90
2017-08-21T17:09:52.763Z,17.10
2017-08-21T17:12:21.041Z,17.10
2017-08-21T17:14:50.374Z,17.00
2017-08-21T17:17:18.672Z,16.90
2017-08-21T17:19:47.732Z,16.80
2017-08-21T17:22:16.342Z,16.80
2017-08-21T17:24:44.389Z,16.70
2017-08-21T17:27:12.469Z,16.70
2017-08-21T17:29:40.917Z,16.60
2017-08-21T17:32:09.389Z,16.60
2017-08-21T17:34:37.709Z,16.50
2017-08-21T17:37:06.342Z,16.60
2017-08-21T17:39:34.648Z,16.60
2017-08-21T17:42:02.934Z,16.50
2017-08-21T17:44:31.578Z,16.50
2017-08-21T17:46:59.904Z,16.40
2017-08-21T17:49:28.213Z,16.40
2017-08-21T17:51:56.817Z,16.40
2017-08-21T17:54:25.113Z,16.40
2017-08-21T17:56:53.966Z,16.40
2017-08-21T17:59:22.595Z,16.30
2017-08-21T18:01:51.142Z,16.40
2017-08-21T18:04:19.464Z,16.30
2017-08-21T18:06:48.063Z,16.40
2017-08-21T18:09:16.387Z,16.40
2017-08-21T18:11:45.419Z,16.40
2017-08-21T18:14:13.754Z,16.30
2017-08-21T18:16:42.063Z,16.40
2017-08-21T18:19:10.875Z,16.40
2017-08-21T18:21:40.236Z,16.30
2017-08-21T18:24:08.557Z,16.30
2017-08-21T18:26:37.892Z,16.30
2017-08-21T18:29:06.290Z,16.30
2017-08-21T18:31:34.670Z,16.30
2017-08-21T18:34:02.961Z,16.30
2017-08-21T18:36:32.257Z,16.40
2017-08-21T18:39:01.801Z,16.40
2017-08-21T18:41:31.208Z,16.30
2017-08-21T18:43:59.560Z,16.30
2017-08-21T18:46:28.153Z,16.20
2017-08-21T18:48:56.467Z,16.10
2017-08-21T18:51:25.666Z,16.10
2017-08-21T18:53:54.337Z,16.10
2017-08-21T18:56:23.377Z,16.00
2017-08-21T18:58:51.695Z,16.00
2017-08-21T19:01:20.420Z,16.00
2017-08-21T19:03:48.708Z,16.00
2017-08-21T19:06:17.002Z,16.00
2017-08-21T19:08:45.616Z,16.00
2017-08-21T19:11:13.970Z,16.00
2017-08-21T19:13:42.292Z,16.00
2017-08-21T19:16:10.578Z,16.00
2017-08-21T19:18:38.919Z,16.00
2017-08-21T19:21:07.536Z,16.00
2017-08-21T19:23:36.117Z,16.00
2017-08-21T19:26:04.437Z,16.00
2017-08-21T19:28:32.755Z,16.10
2017-08-21T19:31:01.669Z,16.00
2017-08-21T19:33:30.559Z,16.00
2017-08-21T19:35:59.806Z,16.00
2017-08-21T19:38:29.023Z,16.00
2017-08-21T19:40:57.706Z,16.00
2017-08-21T19:43:25.991Z,15.90
2017-08-21T19:45:54.295Z,15.90
2017-08-21T19:48:22.606Z,15.90
2017-08-21T19:50:50.912Z,15.90
2017-08-21T19:53:19.513Z,16.00
2017-08-21T19:55:47.813Z,16.00
2017-08-21T19:58:16.108Z,15.90
2017-08-21T20:00:45.148Z,15.90
2017-08-21T20:03:14.299Z,15.90
2017-08-21T20:05:42.616Z,15.90
2017-08-21T20:08:10.957Z,15.90
2017-08-21T20:10:40.092Z,15.80
2017-08-21T20:13:08.727Z,15.80
2017-08-21T20:15:37.025Z,15.70
2017-08-21T20:18:05.303Z,15.70
2017-08-21T20:20:33.995Z,15.70
2017-08-21T20:23:02.284Z,15.60
2017-08-21T20:25:32.346Z,15.60
2017-08-21T20:28:01.010Z,15.60
2017-08-21T20:30:29.316Z,15.50
2017-08-21T20:32:58.945Z,15.50
2017-08-21T20:35:27.585Z,15.40
2017-08-21T20:37:57.812Z,15.40
2017-08-21T20:40:26.911Z,15.40
2017-08-21T20:42:56.309Z,15.40
2017-08-21T20:45:24.661Z,15.30
2017-08-21T20:47:52.954Z,15.40
2017-08-21T20:50:21.546Z,15.30
2017-08-21T20:52:49.855Z,15.30
2017-08-21T20:55:18.151Z,15.30
2017-08-21T20:57:48.356Z,15.30
2017-08-21T21:00:16.656Z,15.20
2017-08-21T21:02:46.022Z,15.20
2017-08-21T21:05:14.610Z,15.10
2017-08-21T21:07:42.925Z,15.10
2017-08-21T21:10:12.534Z,15.00
2017-08-21T21:12:41.179Z,15.00
2017-08-21T21:15:09.493Z,15.00
2017-08-21T21:17:37.796Z,15.00
2017-08-21T21:20:06.450Z,14.90
2017-08-21T21:22:34.772Z,14.90
2017-08-21T21:25:04.199Z,14.90
2017-08-21T21:27:33.887Z,14.80
2017-08-21T21:30:02.185Z,14.80
2017-08-21T21:32:30.829Z,14.80
2017-08-21T21:34:59.607Z,14.70
2017-08-21T21:37:28.619Z,14.70
2017-08-21T21:39:56.935Z,14.60
2017-08-21T21:42:25.706Z,14.60
2017-08-21T21:44:54.685Z,14.60
2017-08-21T21:47:23.009Z,14.60
2017-08-21T21:49:51.658Z,14.50
2017-08-21T21:52:20.352Z,14.50
2017-08-21T21:54:48.648Z,14.50
2017-08-21T21:57:17.410Z,14.40
2017-08-21T21:59:46.059Z,14.40
2017-08-21T22:02:14.728Z,14.40
2017-08-21T22:04:43.042Z,14.40
2017-08-21T22:07:11.481Z,14.40
2017-08-21T22:09:39.814Z,14.30
2017-08-21T22:12:08.460Z,14.30
